Time;durP1;ratioP1;P1;durP2;ratioP2;P2;SDS_P1;SDS_P2;PMS_P1;PMS_P2;Temp;Humidity;BMP_temperature;BMP_pressure;BME280_temperature;BME280_humidity;BME280_pressure;Samples;Min_cycle;Max_cycle;Signal;HPM_P1;HPM_P2
2023/01/22 00:01:16;;;;;;;15.32;8.48;;;-1.40;99.90;;;;;;5113879;27;20092;-61
2023/01/22 00:03:42;;;;;;;13.88;8.50;;;-1.40;99.90;;;;;;5118492;27;20391;-60
2023/01/22 00:06:10;;;;;;;14.82;8.32;;;-1.40;99.90;;;;;;5075247;28;20098;-60
2023/01/22 00:08:36;;;;;;;14.40;8.20;;;-1.40;99.90;;;;;;5036015;27;20061;-61
2023/01/22 00:11:02;;;;;;;15.13;7.80;;;-1.40;99.90;;;;;;5044415;28;20076;-59
2023/01/22 00:13:29;;;;;;;14.98;8.25;;;-1.40;99.90;;;;;;5049766;27;20049;-59
2023/01/22 00:15:58;;;;;;;12.77;7.75;;;-1.40;99.90;;;;;;5034796;28;20101;-62
2023/01/22 00:18:24;;;;;;;15.10;7.75;;;-1.40;99.90;;;;;;5026839;28;20049;-61
2023/01/22 00:20:52;;;;;;;16.60;8.35;;;-1.50;99.90;;;;;;5026529;28;20466;-60
2023/01/22 00:23:18;;;;;;;12.57;7.63;;;-1.50;99.90;;;;;;5023696;28;20041;-60
2023/01/22 00:25:44;;;;;;;15.23;7.82;;;-1.50;99.90;;;;;;5023279;28;20050;-64
2023/01/22 00:28:11;;;;;;;14.30;8.02;;;-1.40;99.90;;;;;;5023634;28;20039;-61
2023/01/22 00:30:36;;;;;;;13.15;7.78;;;-1.40;99.90;;;;;;5047337;28;20041;-61
2023/01/22 00:33:02;;;;;;;12.77;7.65;;;-1.40;99.90;;;;;;5023848;28;20663;-60
2023/01/22 00:35:28;;;;;;;12.32;6.95;;;-1.40;99.90;;;;;;5041933;27;20400;-62
2023/01/22 00:37:53;;;;;;;14.45;7.68;;;-1.50;99.90;;;;;;5033244;28;20045;-60
2023/01/22 00:40:19;;;;;;;11.43;7.43;;;-1.50;99.90;;;;;;5084853;28;20540;-62
2023/01/22 00:42:45;;;;;;;12.02;7.45;;;-1.40;99.90;;;;;;5023785;28;20123;-63
2023/01/22 00:45:13;;;;;;;11.73;7.35;;;-1.40;99.90;;;;;;5024559;28;20072;-62
2023/01/22 00:47:39;;;;;;;15.93;7.93;;;-1.50;99.90;;;;;;5023041;28;20038;-63
2023/01/22 00:50:06;;;;;;;12.93;7.30;;;-1.50;99.90;;;;;;5047763;28;20035;-63
2023/01/22 00:52:31;;;;;;;13.85;7.82;;;-1.50;99.90;;;;;;5027488;28;20033;-62
2023/01/22 00:54:57;;;;;;;15.00;7.78;;;-1.50;99.90;;;;;;5033046;28;20435;-62
2023/01/22 00:57:23;;;;;;;12.98;7.60;;;-1.50;99.90;;;;;;5024140;28;20412;-62
2023/01/22 00:59:48;;;;;;;12.95;7.45;;;-1.50;99.90;;;;;;5036530;28;20079;-62
2023/01/22 01:02:15;;;;;;;14.68;7.78;;;-1.50;99.90;;;;;;5042616;27;20068;-63
2023/01/22 01:04:41;;;;;;;12.75;7.53;;;-1.50;99.90;;;;;;5065807;27;20379;-63
2023/01/22 01:07:07;;;;;;;11.82;7.22;;;-1.50;99.90;;;;;;5054584;27;20474;-59
2023/01/22 01:09:33;;;;;;;14.50;7.60;;;-1.50;99.90;;;;;;5066949;28;20114;-62
2023/01/22 01:11:59;;;;;;;13.57;7.63;;;-1.50;99.90;;;;;;5024965;28;20132;-58
2023/01/22 01:14:25;;;;;;;12.73;7.38;;;-1.50;99.90;;;;;;5079931;28;20038;-61
2023/01/22 01:16:51;;;;;;;13.20;7.68;;;-1.50;99.90;;;;;;5012815;28;20033;-63
2023/01/22 01:19:19;;;;;;;12.45;7.63;;;-1.50;99.90;;;;;;5042436;28;20038;-61
2023/01/22 01:21:45;;;;;;;12.63;7.45;;;-1.50;99.90;;;;;;5025189;28;20762;-64
2023/01/22 01:24:11;;;;;;;13.77;6.55;;;-1.50;99.90;;;;;;5027759;28;20121;-62
2023/01/22 01:26:39;;;;;;;15.48;7.43;;;-1.50;99.90;;;;;;5058214;28;20039;-63
2023/01/22 01:29:06;;;;;;;13.95;7.78;;;-1.50;99.90;;;;;;5021580;28;20466;-64
2023/01/22 01:31:32;;;;;;;12.98;7.53;;;-1.50;99.90;;;;;;5018590;27;20041;-63
2023/01/22 01:33:58;;;;;;;13.35;7.43;;;-1.50;99.90;;;;;;5036809;28;20417;-63
2023/01/22 01:36:25;;;;;;;14.88;7.18;;;-1.40;99.90;;;;;;5028442;28;20480;-62
2023/01/22 01:38:51;;;;;;;12.55;7.53;;;-1.40;99.90;;;;;;5050855;28;20039;-62
2023/01/22 01:41:20;;;;;;;13.43;7.95;;;-1.50;99.90;;;;;;5065881;28;20030;-62
2023/01/22 01:44:08;;;;;;;15.07;7.32;;;-1.40;99.90;;;;;;5022303;28;20050;-60
2023/01/22 01:46:41;;;;;;;13.52;7.65;;;-1.50;99.90;;;;;;5020957;28;20053;-63
2023/01/22 01:49:19;;;;;;;12.60;7.15;;;-1.50;99.90;;;;;;5019386;28;20044;-63
2023/01/22 01:51:46;;;;;;;13.15;7.25;;;-1.50;99.90;;;;;;5019061;28;20128;-63
2023/01/22 01:54:12;;;;;;;17.27;8.65;;;-1.50;99.90;;;;;;5022788;28;20037;-63
2023/01/22 01:56:51;;;;;;;13.80;8.30;;;-1.50;99.90;;;;;;5058272;28;20416;-62
2023/01/22 01:59:20;;;;;;;14.23;8.27;;;-1.60;99.90;;;;;;5021847;28;20128;-62
2023/01/22 02:01:51;;;;;;;14.63;8.05;;;-1.60;99.90;;;;;;5052815;27;20057;-62
2023/01/22 02:04:18;;;;;;;13.02;7.72;;;-1.60;99.90;;;;;;5100495;27;20046;-62
2023/01/22 02:06:44;;;;;;;15.35;7.88;;;-1.50;99.90;;;;;;5066149;27;20440;-61
2023/01/22 02:09:10;;;;;;;12.60;7.60;;;-1.50;99.90;;;;;;5022484;28;20368;-62
2023/01/22 02:11:36;;;;;;;13.20;8.48;;;-1.50;99.90;;;;;;5027174;28;20481;-62
2023/01/22 02:14:10;;;;;;;15.90;8.38;;;-1.50;99.90;;;;;;5017424;28;20037;-63
2023/01/22 02:16:36;;;;;;;12.93;7.97;;;-1.50;99.90;;;;;;5020379;28;20049;-63
2023/01/22 02:19:02;;;;;;;13.15;7.50;;;-1.50;99.90;;;;;;5020479;28;20136;-60
2023/01/22 02:21:40;;;;;;;13.75;7.97;;;-1.50;99.90;;;;;;5015676;28;20089;-62
2023/01/22 02:24:14;;;;;;;14.27;9.00;;;-1.50;99.90;;;;;;5022251;28;20044;-63
2023/01/22 02:26:41;;;;;;;12.55;7.60;;;-1.40;99.90;;;;;;5020436;28;20041;-62
2023/01/22 02:29:09;;;;;;;14.10;8.20;;;-1.40;99.90;;;;;;5022717;28;20453;-61
2023/01/22 02:31:36;;;;;;;14.00;7.78;;;-1.40;99.90;;;;;;5019446;27;20041;-61
2023/01/22 02:34:04;;;;;;;14.35;7.85;;;-1.50;99.90;;;;;;5041211;27;20122;-60
2023/01/22 02:36:32;;;;;;;13.30;7.75;;;-1.60;99.90;;;;;;5067420;27;20561;-64
2023/01/22 02:38:57;;;;;;;15.85;8.55;;;-1.50;99.90;;;;;;5058658;28;20043;-62
2023/01/22 02:41:24;;;;;;;14.20;8.27;;;-1.50;99.90;;;;;;5062017;28;20037;-63
2023/01/22 02:43:50;;;;;;;14.02;8.82;;;-1.50;99.90;;;;;;5039247;28;20033;-61
2023/01/22 02:46:16;;;;;;;14.18;8.50;;;-1.50;99.90;;;;;;5022212;28;20061;-62
2023/01/22 02:48:42;;;;;;;13.80;8.32;;;-1.50;99.90;;;;;;5039687;28;20049;-63
2023/01/22 02:51:07;;;;;;;14.15;8.40;;;-1.50;99.90;;;;;;5048661;28;20102;-60
2023/01/22 02:53:33;;;;;;;14.73;7.93;;;-1.50;99.90;;;;;;5018994;28;20037;-62
2023/01/22 02:55:59;;;;;;;14.70;8.88;;;-1.50;99.90;;;;;;5055393;28;20552;-62
2023/01/22 02:58:24;;;;;;;15.82;9.45;;;-1.50;99.90;;;;;;5021533;28;20053;-62
2023/01/22 03:00:50;;;;;;;16.05;9.18;;;-1.50;99.90;;;;;;5077669;27;20041;-60
2023/01/22 03:03:16;;;;;;;13.70;8.13;;;-1.50;99.90;;;;;;5019778;28;20034;-62
2023/01/22 03:05:48;;;;;;;17.63;9.27;;;-1.40;99.90;;;;;;5094431;28;20110;-63
2023/01/22 03:08:15;;;;;;;16.83;9.15;;;-1.40;99.90;;;;;;5020820;28;20512;-63
2023/01/22 03:10:40;;;;;;;14.68;8.38;;;-1.50;99.90;;;;;;5050783;28;20382;-63
2023/01/22 03:21:19;;;;;;;18.27;9.07;;;-1.40;99.90;;;;;;5058241;28;20489;-63
2023/01/22 03:23:49;;;;;;;14.55;8.77;;;-1.50;99.90;;;;;;5036076;28;20045;-59
2023/01/22 03:26:15;;;;;;;14.45;8.23;;;-1.50;99.90;;;;;;5021926;28;20125;-63
2023/01/22 03:28:41;;;;;;;14.30;8.43;;;-1.40;99.90;;;;;;5020344;28;20041;-63
2023/01/22 03:31:07;;;;;;;14.55;9.32;;;-1.40;99.90;;;;;;5029258;27;20046;-61
2023/01/22 03:33:33;;;;;;;15.40;9.25;;;-1.40;99.90;;;;;;5021328;28;20033;-63
2023/01/22 03:36:00;;;;;;;14.52;8.70;;;-1.40;99.90;;;;;;5084425;28;20037;-62
2023/01/22 03:38:26;;;;;;;14.45;9.20;;;-1.40;99.90;;;;;;5037383;28;20045;-63
2023/01/22 03:40:52;;;;;;;14.07;8.65;;;-1.50;99.90;;;;;;5024969;28;20482;-62
2023/01/22 03:43:17;;;;;;;13.77;9.13;;;-1.50;99.90;;;;;;5021961;28;20042;-62
2023/01/22 03:45:43;;;;;;;14.80;9.05;;;-1.50;99.90;;;;;;5034193;28;20045;-58
2023/01/22 03:48:08;;;;;;;15.07;9.10;;;-1.50;99.90;;;;;;5021916;28;20041;-61
2023/01/22 03:50:35;;;;;;;16.75;9.32;;;-1.50;99.90;;;;;;5055294;28;20085;-62
2023/01/22 03:53:02;;;;;;;14.75;8.65;;;-1.50;99.90;;;;;;5022738;28;20037;-63
2023/01/22 03:55:28;;;;;;;14.75;8.73;;;-1.40;99.90;;;;;;5022377;28;20045;-63
2023/01/22 03:57:54;;;;;;;14.98;8.90;;;-1.40;99.90;;;;;;5029908;28;20090;-63
2023/01/22 04:00:20;;;;;;;12.15;7.70;;;-1.40;99.90;;;;;;5028885;27;20051;-62
2023/01/22 04:02:45;;;;;;;11.02;7.35;;;-1.40;99.90;;;;;;5024181;28;20041;-63
2023/01/22 04:05:11;;;;;;;14.13;7.22;;;-1.40;99.90;;;;;;5067530;27;20039;-65
2023/01/22 04:07:36;;;;;;;11.98;7.78;;;-1.40;99.90;;;;;;5034338;27;20057;-62
2023/01/22 04:10:02;;;;;;;13.38;7.70;;;-1.40;99.90;;;;;;5022709;28;20041;-61
2023/01/22 04:12:28;;;;;;;12.27;7.85;;;-1.30;99.90;;;;;;5023464;28;20202;-63
2023/01/22 04:14:53;;;;;;;11.77;7.13;;;-1.30;99.90;;;;;;5022526;28;20071;-63
2023/01/22 04:17:19;;;;;;;13.48;7.82;;;-1.30;99.90;;;;;;5024439;28;20481;-62
2023/01/22 04:19:44;;;;;;;12.52;7.82;;;-1.30;99.90;;;;;;5024601;28;20041;-61
2023/01/22 04:22:10;;;;;;;12.70;7.70;;;-1.30;99.90;;;;;;5042492;27;20058;-61
2023/01/22 04:24:36;;;;;;;13.35;8.23;;;-1.30;99.90;;;;;;5022397;28;20030;-62
2023/01/22 04:27:01;;;;;;;12.48;7.97;;;-1.30;99.90;;;;;;5023017;28;20160;-61
2023/01/22 04:29:27;;;;;;;14.02;8.30;;;-1.30;99.90;;;;;;5024152;28;20173;-61
2023/01/22 04:31:52;;;;;;;14.57;8.48;;;-1.30;99.90;;;;;;5020444;27;20434;-63
2023/01/22 04:34:18;;;;;;;13.15;8.10;;;-1.30;99.90;;;;;;5051625;27;20506;-63
2023/01/22 04:36:44;;;;;;;14.93;8.63;;;-1.40;99.90;;;;;;5024335;28;20856;-62
2023/01/22 04:39:10;;;;;;;13.93;8.18;;;-1.30;99.90;;;;;;5049387;28;20122;-63
2023/01/22 04:41:35;;;;;;;13.43;8.10;;;-1.40;99.90;;;;;;5022213;28;20813;-64
2023/01/22 04:44:01;;;;;;;14.00;8.32;;;-1.40;99.90;;;;;;5025317;27;20048;-62
2023/01/22 04:46:26;;;;;;;15.88;9.57;;;-1.40;99.90;;;;;;5033290;28;20050;-61
2023/01/22 04:48:52;;;;;;;13.88;8.55;;;-1.40;99.90;;;;;;5023524;28;20033;-64
2023/01/22 04:51:18;;;;;;;14.77;9.27;;;-1.40;99.90;;;;;;5021756;28;20033;-61
2023/01/22 04:53:43;;;;;;;15.02;9.52;;;-1.40;99.90;;;;;;5023121;28;20114;-63
2023/01/22 04:56:09;;;;;;;12.90;8.20;;;-1.40;99.90;;;;;;5026347;28;20452;-63
2023/01/22 04:58:34;;;;;;;13.93;8.60;;;-1.30;99.90;;;;;;5024012;28;20095;-62
2023/01/22 05:01:00;;;;;;;12.95;8.68;;;-1.30;99.90;;;;;;5022152;27;20046;-62
2023/01/22 05:03:25;;;;;;;15.95;8.48;;;-1.30;99.90;;;;;;5023775;28;20072;-61
2023/01/22 05:05:51;;;;;;;14.52;8.10;;;-1.30;99.90;;;;;;5062381;27;20489;-61
2023/01/22 05:08:16;;;;;;;14.82;9.05;;;-1.30;99.90;;;;;;5023343;28;20048;-61
2023/01/22 05:10:42;;;;;;;14.23;7.70;;;-1.30;99.90;;;;;;5028065;28;20096;-64
2023/01/22 05:13:08;;;;;;;13.50;8.35;;;-1.30;99.90;;;;;;5023565;27;20033;-60
2023/01/22 05:15:33;;;;;;;11.88;7.93;;;-1.30;99.90;;;;;;5085033;28;20046;-61
2023/01/22 05:17:59;;;;;;;14.70;8.82;;;-1.30;99.90;;;;;;5022649;28;20064;-63
2023/01/22 05:20:26;;;;;;;11.80;7.40;;;-1.30;99.90;;;;;;5072813;28;20489;-63
2023/01/22 05:22:51;;;;;;;12.27;8.18;;;-1.30;99.90;;;;;;5022535;28;20033;-64
2023/01/22 05:25:17;;;;;;;12.43;8.07;;;-1.30;99.90;;;;;;5023187;28;20040;-63
2023/01/22 05:27:43;;;;;;;13.25;8.23;;;-1.30;99.90;;;;;;5023282;28;20045;-61
2023/01/22 05:30:10;;;;;;;14.82;8.77;;;-1.30;99.90;;;;;;5045925;28;20027;-62
2023/01/22 05:32:36;;;;;;;13.38;8.15;;;-1.30;99.90;;;;;;5053880;28;20154;-63
2023/01/22 05:35:03;;;;;;;11.77;7.65;;;-1.30;99.90;;;;;;5033671;27;20045;-62
2023/01/22 05:37:30;;;;;;;11.65;7.28;;;-1.30;99.90;;;;;;5020019;28;20050;-62
2023/01/22 05:39:56;;;;;;;12.88;8.18;;;-1.20;99.90;;;;;;5022621;28;20453;-62
2023/01/22 05:42:22;;;;;;;10.45;6.70;;;-1.20;99.90;;;;;;5022790;28;20125;-61
2023/01/22 05:44:48;;;;;;;10.50;6.60;;;-1.20;99.90;;;;;;5046958;27;20074;-63
2023/01/22 05:47:14;;;;;;;11.70;7.20;;;-1.20;99.90;;;;;;5024419;28;20048;-62
2023/01/22 05:49:39;;;;;;;11.32;6.85;;;-1.20;99.90;;;;;;5029857;28;20548;-61
2023/01/22 05:52:05;;;;;;;12.30;8.10;;;-1.20;99.90;;;;;;5037314;28;20037;-62
2023/01/22 05:54:31;;;;;;;11.60;7.18;;;-1.20;99.90;;;;;;5062110;28;20034;-60
2023/01/22 05:56:56;;;;;;;11.70;7.50;;;-1.30;99.90;;;;;;5058141;28;20148;-63
2023/01/22 05:59:22;;;;;;;12.07;7.00;;;-1.30;99.90;;;;;;5061000;28;20052;-62
2023/01/22 06:01:47;;;;;;;12.18;7.65;;;-1.30;99.90;;;;;;5054372;27;20042;-63
2023/01/22 06:04:13;;;;;;;11.85;8.20;;;-1.30;99.90;;;;;;5066764;27;20037;-61
2023/01/22 06:06:38;;;;;;;12.05;7.50;;;-1.30;99.90;;;;;;5021359;28;20153;-63
2023/01/22 06:09:04;;;;;;;11.75;7.57;;;-1.20;99.90;;;;;;5058489;28;20093;-59
2023/01/22 06:11:30;;;;;;;11.70;7.35;;;-1.20;99.90;;;;;;5046603;28;20463;-62
2023/01/22 06:13:55;;;;;;;10.30;6.55;;;-1.20;99.90;;;;;;5023191;28;20026;-62
2023/01/22 06:16:21;;;;;;;12.82;7.50;;;-1.20;99.90;;;;;;5022262;28;20048;-61
2023/01/22 06:18:46;;;;;;;10.50;6.32;;;-1.20;99.90;;;;;;5046969;28;20886;-61
2023/01/22 06:21:12;;;;;;;10.43;6.70;;;-1.20;99.90;;;;;;5026247;28;20030;-62
2023/01/22 06:23:37;;;;;;;9.95;6.45;;;-1.20;99.90;;;;;;5020924;28;20055;-60
2023/01/22 06:26:04;;;;;;;10.95;7.22;;;-1.20;99.90;;;;;;5020985;28;20041;-63
2023/01/22 06:28:30;;;;;;;10.13;6.20;;;-1.20;99.90;;;;;;5035527;28;20053;-61
2023/01/22 06:31:01;;;;;;;8.18;5.72;;;-1.30;99.90;;;;;;5075216;27;20041;-62
2023/01/22 06:33:26;;;;;;;8.50;6.03;;;-1.20;99.90;;;;;;5044362;27;20133;-62
2023/01/22 06:35:55;;;;;;;9.27;5.32;;;-1.20;99.90;;;;;;5025523;27;20136;-62
2023/01/22 06:38:22;;;;;;;8.48;5.68;;;-1.20;99.90;;;;;;5019491;28;20113;-62
2023/01/22 06:40:56;;;;;;;9.52;6.25;;;-1.20;99.90;;;;;;5056972;28;20038;-60
2023/01/22 06:43:22;;;;;;;9.05;5.95;;;-1.20;99.90;;;;;;5038774;28;20184;-62
2023/01/22 06:45:48;;;;;;;8.70;5.28;;;-1.20;99.90;;;;;;5032679;28;20045;-63
2023/01/22 06:48:15;;;;;;;8.32;5.65;;;-1.30;99.90;;;;;;5022147;28;20037;-61
2023/01/22 06:50:41;;;;;;;7.68;5.22;;;-1.20;99.90;;;;;;5044862;28;20037;-59
2023/01/22 06:53:07;;;;;;;5.05;3.70;;;-1.10;99.90;;;;;;5101301;28;20916;-62
2023/01/22 06:55:32;;;;;;;8.55;4.85;;;-1.10;99.90;;;;;;5073673;28;20042;-60
2023/01/22 06:57:58;;;;;;;6.82;4.57;;;-1.10;99.90;;;;;;5036278;28;20040;-62
2023/01/22 07:00:24;;;;;;;7.10;4.63;;;-1.20;99.90;;;;;;5069373;27;20120;-61
2023/01/22 07:02:49;;;;;;;6.78;4.60;;;-1.10;99.90;;;;;;5038414;28;20128;-61
2023/01/22 07:05:15;;;;;;;6.05;4.22;;;-1.20;99.90;;;;;;5083176;28;20200;-62
2023/01/22 07:07:41;;;;;;;6.43;4.53;;;-1.20;99.90;;;;;;5035434;28;20136;-56
2023/01/22 07:10:08;;;;;;;6.93;4.82;;;-1.10;99.90;;;;;;5021378;28;20044;-61
2023/01/22 07:12:34;;;;;;;7.43;4.45;;;-1.10;99.90;;;;;;5021807;28;20049;-60
2023/01/22 07:15:00;;;;;;;6.03;4.63;;;-1.10;99.90;;;;;;5036570;28;20045;-61
2023/01/22 07:17:25;;;;;;;7.35;4.85;;;-1.20;99.90;;;;;;5021739;28;20101;-62
2023/01/22 07:19:51;;;;;;;6.75;4.43;;;-1.20;99.90;;;;;;5048915;28;20068;-59
2023/01/22 07:22:16;;;;;;;7.50;5.00;;;-1.10;99.90;;;;;;5021374;28;20041;-62
2023/01/22 07:24:42;;;;;;;8.07;5.15;;;-1.10;99.90;;;;;;5052442;28;20049;-57
2023/01/22 07:27:08;;;;;;;7.43;5.05;;;-1.00;99.90;;;;;;5014312;28;20033;-61
2023/01/22 07:29:33;;;;;;;6.97;4.93;;;-1.10;99.90;;;;;;5060544;28;20037;-60
2023/01/22 07:31:59;;;;;;;5.80;4.28;;;-1.10;99.90;;;;;;5058503;27;20393;-61
2023/01/22 07:34:24;;;;;;;6.63;4.63;;;-1.00;99.90;;;;;;5045244;27;20039;-60
2023/01/22 07:36:50;;;;;;;7.20;4.88;;;-1.00;99.90;;;;;;5069508;27;20033;-57
2023/01/22 07:39:16;;;;;;;7.95;5.13;;;-1.00;99.90;;;;;;5047952;28;20050;-57
2023/01/22 07:41:41;;;;;;;6.47;4.35;;;-1.00;99.90;;;;;;5053403;28;20072;-63
2023/01/22 07:44:07;;;;;;;7.47;4.88;;;-1.00;99.90;;;;;;5059541;27;20508;-63
2023/01/22 07:46:37;;;;;;;7.78;5.13;;;-0.90;99.90;;;;;;5090104;28;20070;-62
2023/01/22 07:49:03;;;;;;;7.30;5.07;;;-1.00;99.90;;;;;;5049873;28;20105;-62
2023/01/22 07:51:29;;;;;;;8.07;4.90;;;-1.10;99.90;;;;;;5047136;28;20046;-64
2023/01/22 07:53:55;;;;;;;8.55;5.38;;;-1.00;99.90;;;;;;5051639;27;20074;-63
2023/01/22 07:56:20;;;;;;;8.18;5.63;;;-1.10;99.90;;;;;;5067427;28;20049;-60
2023/01/22 07:58:46;;;;;;;8.63;5.40;;;-1.00;99.90;;;;;;5073451;28;20056;-64
2023/01/22 08:01:12;;;;;;;8.10;5.25;;;-1.00;99.90;;;;;;5025559;27;20045;-63
2023/01/22 08:03:38;;;;;;;8.30;5.60;;;-1.00;99.90;;;;;;5026300;27;20037;-59
2023/01/22 08:06:11;;;;;;;6.93;4.80;;;-0.90;99.90;;;;;;5024374;28;20049;-55
2023/01/22 08:08:37;;;;;;;6.45;4.68;;;-0.90;99.90;;;;;;5041614;27;20060;-60
2023/01/22 08:11:03;;;;;;;8.48;5.72;;;-0.90;99.90;;;;;;5019891;28;20067;-62
2023/01/22 08:13:29;;;;;;;7.80;5.13;;;-0.80;99.90;;;;;;5077239;28;20099;-61
2023/01/22 08:15:55;;;;;;;9.80;5.68;;;-0.90;99.90;;;;;;5024850;28;20136;-62
2023/01/22 08:18:21;;;;;;;7.05;4.88;;;-0.90;99.90;;;;;;5032196;28;20103;-63
2023/01/22 08:20:46;;;;;;;6.95;4.35;;;-0.80;99.90;;;;;;5085652;28;20325;-60
2023/01/22 08:23:12;;;;;;;8.40;4.90;;;-0.80;99.90;;;;;;5023122;28;20124;-62
2023/01/22 08:25:38;;;;;;;8.50;4.90;;;-0.80;99.90;;;;;;5018909;28;20409;-63
2023/01/22 08:28:05;;;;;;;6.47;4.57;;;-0.80;99.90;;;;;;5019065;28;20098;-63
2023/01/22 08:30:34;;;;;;;6.03;4.10;;;-0.70;99.90;;;;;;5018043;27;20030;-63
2023/01/22 08:33:01;;;;;;;6.65;4.63;;;-0.70;99.90;;;;;;5084532;27;20430;-62
2023/01/22 08:35:28;;;;;;;7.22;4.47;;;-0.70;99.90;;;;;;5085203;28;20046;-60
2023/01/22 08:37:57;;;;;;;5.72;4.00;;;-0.60;99.90;;;;;;5020069;28;20060;-61
2023/01/22 08:40:23;;;;;;;5.50;4.05;;;-0.70;99.90;;;;;;5022467;28;20137;-60
2023/01/22 08:42:54;;;;;;;5.10;3.70;;;-0.60;99.90;;;;;;5024419;28;20137;-63
2023/01/22 08:45:20;;;;;;;6.65;4.13;;;-0.70;99.90;;;;;;5035744;27;20556;-60
2023/01/22 08:47:46;;;;;;;5.93;3.95;;;-0.80;99.90;;;;;;5025878;28;20046;-63
2023/01/22 08:50:12;;;;;;;4.93;3.53;;;-0.70;99.90;;;;;;5092897;28;20118;-59
2023/01/22 08:52:38;;;;;;;5.65;3.72;;;-0.70;99.90;;;;;;5024741;28;20048;-63
2023/01/22 08:55:05;;;;;;;5.28;3.80;;;-0.60;99.90;;;;;;5050951;28;20647;-63
2023/01/22 08:57:31;;;;;;;6.05;4.05;;;-0.60;99.90;;;;;;5044610;28;20097;-61
2023/01/22 08:59:57;;;;;;;4.80;3.50;;;-0.50;99.90;;;;;;5036169;28;20688;-60
2023/01/22 09:02:22;;;;;;;5.57;3.80;;;-0.50;99.90;;;;;;5022220;27;20062;-62
2023/01/22 09:04:48;;;;;;;5.85;4.13;;;-0.50;99.90;;;;;;5029029;27;20065;-62
2023/01/22 09:07:14;;;;;;;5.13;3.72;;;-0.50;99.90;;;;;;5072487;27;20509;-62
2023/01/22 09:09:39;;;;;;;5.40;3.55;;;-0.60;99.90;;;;;;5058050;28;20042;-60
2023/01/22 09:12:05;;;;;;;5.20;3.72;;;-0.50;99.90;;;;;;5023740;28;20089;-62
2023/01/22 09:14:31;;;;;;;5.25;3.38;;;-0.50;99.90;;;;;;5036268;28;20037;-61
2023/01/22 09:16:56;;;;;;;4.20;3.22;;;-0.60;99.90;;;;;;5059661;28;20045;-63
2023/01/22 09:19:23;;;;;;;5.03;3.45;;;-0.60;99.90;;;;;;5083846;28;20462;-61
2023/01/22 09:21:48;;;;;;;5.55;3.65;;;-0.50;99.90;;;;;;5020522;28;20026;-63
2023/01/22 09:24:14;;;;;;;3.90;2.92;;;-0.40;99.90;;;;;;5076580;28;20093;-61
2023/01/22 09:26:41;;;;;;;4.25;3.17;;;-0.40;99.90;;;;;;5088281;28;20073;-62
2023/01/22 09:29:07;;;;;;;4.32;2.88;;;-0.50;99.90;;;;;;5087179;28;20033;-62
2023/01/22 09:31:34;;;;;;;3.83;3.00;;;-0.50;99.90;;;;;;5074836;28;20498;-62
2023/01/22 09:34:00;;;;;;;4.28;2.88;;;-0.50;99.90;;;;;;5054110;27;20041;-64
2023/01/22 09:36:26;;;;;;;3.75;2.97;;;-0.60;99.90;;;;;;5029911;27;20041;-63
2023/01/22 09:38:52;;;;;;;4.97;3.20;;;-0.60;99.90;;;;;;5074656;28;20046;-62
2023/01/22 09:41:26;;;;;;;3.97;2.47;;;-0.60;99.90;;;;;;5054458;28;20036;-58
2023/01/22 09:44:05;;;;;;;4.38;3.10;;;-0.50;99.90;;;;;;5047073;27;20103;-62
2023/01/22 09:46:37;;;;;;;4.03;2.95;;;-0.50;99.90;;;;;;5030727;28;20517;-62
2023/01/22 09:49:14;;;;;;;3.20;2.42;;;-0.50;99.90;;;;;;5046875;28;20368;-62
2023/01/22 09:51:43;;;;;;;3.42;2.72;;;-0.40;99.90;;;;;;5016175;28;20045;-66
2023/01/22 09:54:14;;;;;;;4.05;2.67;;;-0.30;99.90;;;;;;5050117;28;20051;-63
2023/01/22 09:56:44;;;;;;;3.70;2.70;;;-0.20;99.90;;;;;;5022231;28;20049;-62
2023/01/22 09:59:19;;;;;;;4.25;3.08;;;-0.20;99.90;;;;;;5015217;28;20068;-62
2023/01/22 10:01:50;;;;;;;3.80;2.75;;;-0.30;99.90;;;;;;5021610;27;20069;-63
2023/01/22 10:04:36;;;;;;;3.90;2.80;;;-0.40;99.90;;;;;;5057047;27;20047;-64
2023/01/22 10:07:06;;;;;;;3.50;2.55;;;-0.40;99.90;;;;;;5020173;28;20041;-64
2023/01/22 10:09:33;;;;;;;4.68;3.40;;;-0.40;99.90;;;;;;5065468;27;20057;-61
2023/01/22 10:12:07;;;;;;;5.18;3.35;;;-0.40;99.90;;;;;;5022329;28;20493;-62
2023/01/22 10:14:32;;;;;;;3.72;3.00;;;-0.40;99.90;;;;;;5038162;27;20059;-62
2023/01/22 10:17:00;;;;;;;4.07;2.90;;;-0.40;99.90;;;;;;5022445;28;20553;-61
2023/01/22 10:19:41;;;;;;;3.95;2.78;;;-0.40;99.90;;;;;;5045313;27;20041;-62
2023/01/22 10:22:22;;;;;;;3.70;2.83;;;-0.30;99.90;;;;;;5019848;28;20443;-63
2023/01/22 10:24:48;;;;;;;6.63;3.60;;;-0.20;99.90;;;;;;5038640;28;20094;-62
2023/01/22 10:27:16;;;;;;;4.53;3.22;;;-0.20;99.90;;;;;;5032666;28;20683;-64
2023/01/22 10:29:44;;;;;;;4.22;3.17;;;-0.20;99.90;;;;;;5052683;27;20128;-62
2023/01/22 10:32:19;;;;;;;5.30;3.65;;;-0.20;99.90;;;;;;5021284;27;20499;-60
2023/01/22 10:35:00;;;;;;;5.18;3.70;;;-0.20;99.90;;;;;;5058319;27;20106;-63
2023/01/22 10:37:26;;;;;;;4.72;3.40;;;-0.10;99.90;;;;;;5021110;28;20038;-62
2023/01/22 10:39:57;;;;;;;5.82;3.85;;;0.00;99.90;;;;;;5041180;27;20511;-61
2023/01/22 10:42:28;;;;;;;5.43;3.88;;;-0.10;99.90;;;;;;5021064;28;20057;-60
2023/01/22 10:44:56;;;;;;;6.38;4.22;;;-0.20;99.90;;;;;;5052402;28;20497;-61
2023/01/22 10:47:26;;;;;;;6.15;3.90;;;-0.10;99.90;;;;;;5020342;28;20152;-61
2023/01/22 10:50:24;;;;;;;5.53;3.95;;;-0.10;99.90;;;;;;5027643;28;20052;-61
2023/01/22 10:52:53;;;;;;;6.72;4.78;;;0.00;99.90;;;;;;5047205;27;20052;-61
2023/01/22 10:55:26;;;;;;;5.60;3.97;;;0.10;99.90;;;;;;5023130;28;20044;-60
2023/01/22 10:57:56;;;;;;;6.72;4.95;;;0.20;99.90;;;;;;5027007;28;20053;-60
2023/01/22 11:00:37;;;;;;;7.22;4.60;;;0.20;99.90;;;;;;5048051;28;20049;-62
2023/01/22 11:03:21;;;;;;;5.35;3.95;;;0.20;99.90;;;;;;5020257;28;20504;-62
2023/01/22 11:05:49;;;;;;;6.53;4.68;;;0.20;99.90;;;;;;5028599;28;20070;-62
2023/01/22 11:08:18;;;;;;;5.78;4.20;;;0.20;99.90;;;;;;5018408;28;20046;-62
2023/01/22 11:10:47;;;;;;;6.90;4.38;;;0.10;99.90;;;;;;5015646;28;20053;-62
2023/01/22 11:13:21;;;;;;;6.35;4.10;;;0.10;99.90;;;;;;5017048;28;20563;-62
2023/01/22 11:15:54;;;;;;;6.45;4.70;;;0.20;99.90;;;;;;5015441;28;20044;-63
2023/01/22 11:18:35;;;;;;;7.20;4.90;;;0.10;99.90;;;;;;5023581;28;20064;-62
2023/01/22 11:21:09;;;;;;;6.95;4.70;;;0.20;99.90;;;;;;5033124;28;20117;-60
2023/01/22 11:23:42;;;;;;;7.70;4.90;;;0.20;99.90;;;;;;5031418;28;20041;-63
2023/01/22 11:26:36;;;;;;;7.95;5.28;;;0.20;99.90;;;;;;5036452;28;20045;-60
2023/01/22 11:29:22;;;;;;;6.75;4.30;;;0.10;99.90;;;;;;5045349;28;20193;-62
2023/01/22 11:32:10;;;;;;;7.72;5.13;;;0.10;99.90;;;;;;5018625;27;20041;-63
2023/01/22 11:34:46;;;;;;;8.73;4.80;;;0.10;99.90;;;;;;5042163;28;20049;-59
2023/01/22 11:37:15;;;;;;;7.63;5.00;;;0.20;99.90;;;;;;5014008;28;20509;-62
2023/01/22 11:39:51;;;;;;;7.82;4.97;;;0.10;99.90;;;;;;5032740;28;20038;-63
2023/01/22 11:42:19;;;;;;;7.57;5.05;;;0.20;99.90;;;;;;5016934;28;20535;-63
2023/01/22 11:45:00;;;;;;;8.32;4.53;;;0.10;99.90;;;;;;5029228;28;20038;-61
2023/01/22 11:47:54;;;;;;;6.53;4.22;;;0.20;99.90;;;;;;5017395;28;20498;-62
2023/01/22 11:50:38;;;;;;;7.22;4.78;;;0.30;99.90;;;;;;5082287;28;20037;-63
2023/01/22 11:53:32;;;;;;;7.32;5.18;;;0.30;99.90;;;;;;5019898;28;20039;-63
2023/01/22 11:56:05;;;;;;;8.90;5.15;;;0.30;99.90;;;;;;5013904;28;20128;-63
2023/01/22 11:58:50;;;;;;;13.95;6.03;;;0.30;99.90;;;;;;5019150;28;20064;-61
2023/01/22 12:01:54;;;;;;;10.73;5.18;;;0.20;99.90;;;;;;5072916;28;20037;-62
2023/01/22 12:04:53;;;;;;;11.05;5.32;;;0.30;99.90;;;;;;5014327;28;20563;-60
2023/01/22 12:08:01;;;;;;;19.50;5.45;;;0.30;99.90;;;;;;5012461;28;20038;-63
2023/01/22 12:10:50;;;;;;;;;;;0.20;99.90;;;;;;5015294;28;20663;-59
2023/01/22 12:13:46;;;;;;;9.82;5.72;;;0.20;99.90;;;;;;5018170;28;19917;-60
2023/01/22 12:16:15;;;;;;;27.33;5.80;;;0.30;99.90;;;;;;5085289;28;20045;-63
2023/01/22 12:19:06;;;;;;;8.70;5.32;;;0.30;99.90;;;;;;5021802;28;20551;-63
2023/01/22 12:21:34;;;;;;;13.27;6.03;;;0.30;99.90;;;;;;5015977;28;20123;-61
2023/01/22 12:24:19;;;;;;;9.07;5.65;;;0.30;99.90;;;;;;5032980;28;20045;-62
2023/01/22 12:26:58;;;;;;;9.15;5.93;;;0.40;99.90;;;;;;5016165;28;20049;-62
2023/01/22 12:29:30;;;;;;;7.30;5.10;;;0.40;99.90;;;;;;5050522;28;20761;-62
2023/01/22 12:32:23;;;;;;;9.10;5.93;;;0.40;99.90;;;;;;5057472;27;20041;-62
2023/01/22 12:34:59;;;;;;;15.73;6.43;;;0.50;99.90;;;;;;5061678;27;20055;-61
2023/01/22 12:37:32;;;;;;;;;;;0.40;99.90;;;;;;5024007;27;20045;-62
2023/01/22 12:40:22;;;;;;;8.70;5.30;;;0.30;99.90;;;;;;5065819;28;19972;-61
2023/01/22 12:42:58;;;;;;;12.07;6.03;;;0.30;99.90;;;;;;5026099;28;20072;-60
2023/01/22 12:45:39;;;;;;;11.80;6.07;;;0.40;99.90;;;;;;5055592;27;20049;-63
2023/01/22 12:48:22;;;;;;;8.85;5.70;;;0.30;99.90;;;;;;5037191;27;20634;-59
2023/01/22 12:50:56;;;;;;;10.73;5.75;;;0.40;99.90;;;;;;5057635;27;20076;-61
2023/01/22 12:53:33;;;;;;;10.57;6.07;;;0.40;99.90;;;;;;5020212;28;20409;-62
2023/01/22 12:56:00;;;;;;;12.90;6.45;;;0.40;99.90;;;;;;5059328;28;20046;-57
2023/01/22 12:58:29;;;;;;;14.93;6.50;;;0.40;99.90;;;;;;5023777;28;20063;-62
2023/01/22 13:01:12;;;;;;;12.02;6.13;;;0.20;99.90;;;;;;5089249;28;20126;-62